General Aviation Weather

Text Reports

Enter one or more of the following location identifiers separated by a space:

Zip Code, Four-Character ICAO or Three-Character IATA airport codes.

METAR - Aviation Routine Weather Report
KAUN - Auburn, California
Updated at 4:35 PM GMT on April 19, 2014 (9:35 AM PDT):
METAR KAUN 191635Z AUTO 15009G14KT 10SM CLR 16/05 A2999 RMK AO1
TAF - Terminal Area Forecast
KAUN - Auburn, California
Updated at 4:35 PM GMT on April 19, 2014 (9:35 AM PDT):
No TAF is currently available for this location.
Decoded:
No decoded TAF is available.
PIREP - Pilot Weather Report
KAUN - Auburn, California
Updated at 4:35 PM GMT on April 19, 2014 (9:35 AM PDT):
No PIREP is currently available for this location.
AIRMET - Airmens Meteorological Information
KAUN - Auburn, California
Updated at 4:35 PM GMT on April 19, 2014 (9:35 AM PDT):
No AIRMET is currently available for this location.
SIGMET - Significant Meteorological Information
KAUN - Auburn, California
Updated at 4:35 PM GMT on April 19, 2014 (9:35 AM PDT):
No SIGMET is currently available for this location.
NOTAM - Notice to Airmen
KAUN - Auburn, California
Updated at 4:35 PM GMT on April 19, 2014 (9:35 AM PDT):
No NOTAM is currently available for this location.
Forecast Area
KAUN - Auburn, California
Updated at 4:35 PM GMT on April 19, 2014 (9:35 AM PDT):
No NOTAM is currently available for this location.
Aviation Weather Maps